sensor_id;sensor_type;location;lat;lon;timestamp;P1;durP1;ratioP1;P2;durP2;ratioP2
48516;SDS011;34310;51.904;4.256;2023-09-30T00:01:52;4.97;;;2.22;;
48516;SDS011;34310;51.904;4.256;2023-09-30T00:04:18;3.47;;;2.10;;
48516;SDS011;34310;51.904;4.256;2023-09-30T00:06:46;3.80;;;2.10;;
48516;SDS011;34310;51.904;4.256;2023-09-30T00:09:13;3.22;;;2.10;;
48516;SDS011;34310;51.904;4.256;2023-09-30T00:11:39;4.00;;;2.20;;
48516;SDS011;34310;51.904;4.256;2023-09-30T00:14:06;3.78;;;2.00;;
48516;SDS011;34310;51.904;4.256;2023-09-30T00:16:32;3.35;;;2.10;;
48516;SDS011;34310;51.904;4.256;2023-09-30T00:18:59;2.92;;;2.00;;
48516;SDS011;34310;51.904;4.256;2023-09-30T00:21:25;3.95;;;2.22;;
48516;SDS011;34310;51.904;4.256;2023-09-30T00:23:52;3.17;;;1.90;;
48516;SDS011;34310;51.904;4.256;2023-09-30T00:26:18;4.93;;;2.28;;
48516;SDS011;34310;51.904;4.256;2023-09-30T00:28:45;2.65;;;1.98;;
48516;SDS011;34310;51.904;4.256;2023-09-30T00:31:11;2.83;;;2.05;;
48516;SDS011;34310;51.904;4.256;2023-09-30T00:33:38;3.67;;;2.10;;
48516;SDS011;34310;51.904;4.256;2023-09-30T00:36:14;2.95;;;2.15;;
48516;SDS011;34310;51.904;4.256;2023-09-30T00:38:40;3.35;;;2.03;;
48516;SDS011;34310;51.904;4.256;2023-09-30T00:41:07;3.53;;;2.10;;
48516;SDS011;34310;51.904;4.256;2023-09-30T00:43:33;3.60;;;2.20;;
48516;SDS011;34310;51.904;4.256;2023-09-30T00:46:08;3.35;;;2.05;;
48516;SDS011;34310;51.904;4.256;2023-09-30T00:48:44;4.90;;;2.00;;
48516;SDS011;34310;51.904;4.256;2023-09-30T00:51:11;3.25;;;2.00;;
48516;SDS011;34310;51.904;4.256;2023-09-30T00:53:38;4.18;;;2.05;;
48516;SDS011;34310;51.904;4.256;2023-09-30T00:56:05;4.20;;;2.17;;
48516;SDS011;34310;51.904;4.256;2023-09-30T00:58:31;2.65;;;1.77;;
48516;SDS011;34310;51.904;4.256;2023-09-30T01:01:00;2.38;;;1.80;;
48516;SDS011;34310;51.904;4.256;2023-09-30T01:03:26;3.80;;;2.00;;
48516;SDS011;34310;51.904;4.256;2023-09-30T01:05:53;3.65;;;2.20;;
48516;SDS011;34310;51.904;4.256;2023-09-30T01:08:20;3.22;;;1.95;;
48516;SDS011;34310;51.904;4.256;2023-09-30T01:10:47;2.95;;;2.30;;
48516;SDS011;34310;51.904;4.256;2023-09-30T01:13:14;2.33;;;2.08;;
48516;SDS011;34310;51.904;4.256;2023-09-30T01:15:40;4.18;;;2.13;;
48516;SDS011;34310;51.904;4.256;2023-09-30T01:18:07;3.30;;;2.38;;
48516;SDS011;34310;51.904;4.256;2023-09-30T01:20:33;4.90;;;2.70;;
48516;SDS011;34310;51.904;4.256;2023-09-30T01:23:00;3.00;;;2.42;;
48516;SDS011;34310;51.904;4.256;2023-09-30T01:25:28;3.50;;;2.10;;
48516;SDS011;34310;51.904;4.256;2023-09-30T01:27:55;3.25;;;2.38;;
48516;SDS011;34310;51.904;4.256;2023-09-30T01:30:21;4.45;;;2.80;;
48516;SDS011;34310;51.904;4.256;2023-09-30T01:32:48;4.03;;;2.40;;
48516;SDS011;34310;51.904;4.256;2023-09-30T01:35:14;4.80;;;2.78;;
48516;SDS011;34310;51.904;4.256;2023-09-30T01:37:41;4.35;;;2.67;;
48516;SDS011;34310;51.904;4.256;2023-09-30T01:40:07;3.17;;;2.30;;
48516;SDS011;34310;51.904;4.256;2023-09-30T01:42:34;3.63;;;2.47;;
48516;SDS011;34310;51.904;4.256;2023-09-30T01:45:00;4.25;;;2.80;;
48516;SDS011;34310;51.904;4.256;2023-09-30T01:47:27;3.70;;;2.95;;
48516;SDS011;34310;51.904;4.256;2023-09-30T01:49:54;5.32;;;2.60;;
48516;SDS011;34310;51.904;4.256;2023-09-30T01:52:20;3.90;;;2.95;;
48516;SDS011;34310;51.904;4.256;2023-09-30T01:54:47;3.75;;;2.55;;
48516;SDS011;34310;51.904;4.256;2023-09-30T01:57:13;3.50;;;3.00;;
48516;SDS011;34310;51.904;4.256;2023-09-30T01:59:40;6.03;;;3.00;;
48516;SDS011;34310;51.904;4.256;2023-09-30T02:02:06;2.72;;;2.40;;
48516;SDS011;34310;51.904;4.256;2023-09-30T02:04:33;4.18;;;2.92;;
48516;SDS011;34310;51.904;4.256;2023-09-30T02:06:59;3.95;;;2.58;;
48516;SDS011;34310;51.904;4.256;2023-09-30T02:09:26;5.20;;;3.30;;
48516;SDS011;34310;51.904;4.256;2023-09-30T02:11:52;4.90;;;2.90;;
48516;SDS011;34310;51.904;4.256;2023-09-30T02:14:19;5.28;;;3.22;;
48516;SDS011;34310;51.904;4.256;2023-09-30T02:16:45;3.45;;;2.60;;
48516;SDS011;34310;51.904;4.256;2023-09-30T02:19:12;6.22;;;2.88;;
48516;SDS011;34310;51.904;4.256;2023-09-30T02:21:39;3.70;;;3.30;;
48516;SDS011;34310;51.904;4.256;2023-09-30T02:24:05;3.88;;;3.03;;
48516;SDS011;34310;51.904;4.256;2023-09-30T02:26:32;4.28;;;2.90;;
48516;SDS011;34310;51.904;4.256;2023-09-30T02:28:59;4.70;;;2.80;;
48516;SDS011;34310;51.904;4.256;2023-09-30T02:31:25;4.43;;;3.00;;
48516;SDS011;34310;51.904;4.256;2023-09-30T02:33:52;4.38;;;3.10;;
48516;SDS011;34310;51.904;4.256;2023-09-30T02:36:19;5.35;;;3.08;;
48516;SDS011;34310;51.904;4.256;2023-09-30T02:38:45;3.75;;;2.70;;
48516;SDS011;34310;51.904;4.256;2023-09-30T02:41:12;5.57;;;3.47;;
48516;SDS011;34310;51.904;4.256;2023-09-30T02:43:38;6.00;;;3.28;;
48516;SDS011;34310;51.904;4.256;2023-09-30T02:46:04;4.93;;;3.33;;
48516;SDS011;34310;51.904;4.256;2023-09-30T02:48:31;4.72;;;2.70;;
48516;SDS011;34310;51.904;4.256;2023-09-30T02:50:57;3.90;;;3.00;;
48516;SDS011;34310;51.904;4.256;2023-09-30T02:53:24;6.68;;;3.05;;
48516;SDS011;34310;51.904;4.256;2023-09-30T02:55:50;5.10;;;3.25;;
48516;SDS011;34310;51.904;4.256;2023-09-30T02:58:17;6.07;;;3.05;;
48516;SDS011;34310;51.904;4.256;2023-09-30T03:00:47;4.40;;;2.80;;
48516;SDS011;34310;51.904;4.256;2023-09-30T03:03:14;6.82;;;3.53;;
48516;SDS011;34310;51.904;4.256;2023-09-30T03:05:41;5.38;;;2.97;;
48516;SDS011;34310;51.904;4.256;2023-09-30T03:08:08;4.68;;;3.08;;
48516;SDS011;34310;51.904;4.256;2023-09-30T03:10:34;4.80;;;3.22;;
48516;SDS011;34310;51.904;4.256;2023-09-30T03:13:00;4.15;;;2.70;;
48516;SDS011;34310;51.904;4.256;2023-09-30T03:15:28;6.60;;;3.35;;
48516;SDS011;34310;51.904;4.256;2023-09-30T03:17:54;4.53;;;3.38;;
48516;SDS011;34310;51.904;4.256;2023-09-30T03:20:21;5.55;;;3.13;;
48516;SDS011;34310;51.904;4.256;2023-09-30T03:22:47;4.75;;;3.33;;
48516;SDS011;34310;51.904;4.256;2023-09-30T03:25:15;4.65;;;3.30;;
48516;SDS011;34310;51.904;4.256;2023-09-30T03:27:43;4.22;;;3.28;;
48516;SDS011;34310;51.904;4.256;2023-09-30T03:30:10;4.35;;;3.63;;
48516;SDS011;34310;51.904;4.256;2023-09-30T03:32:37;4.20;;;3.42;;
48516;SDS011;34310;51.904;4.256;2023-09-30T03:35:04;5.97;;;3.88;;
48516;SDS011;34310;51.904;4.256;2023-09-30T03:37:32;12.00;;;4.20;;
48516;SDS011;34310;51.904;4.256;2023-09-30T03:39:59;4.53;;;3.70;;
48516;SDS011;34310;51.904;4.256;2023-09-30T03:42:25;5.78;;;3.60;;
48516;SDS011;34310;51.904;4.256;2023-09-30T03:44:52;5.18;;;3.75;;
48516;SDS011;34310;51.904;4.256;2023-09-30T03:47:18;5.43;;;3.85;;
48516;SDS011;34310;51.904;4.256;2023-09-30T03:49:45;6.30;;;3.92;;
48516;SDS011;34310;51.904;4.256;2023-09-30T03:52:11;5.43;;;3.85;;
48516;SDS011;34310;51.904;4.256;2023-09-30T03:54:41;5.25;;;3.88;;
48516;SDS011;34310;51.904;4.256;2023-09-30T03:57:07;5.43;;;4.00;;
48516;SDS011;34310;51.904;4.256;2023-09-30T03:59:34;5.43;;;4.05;;
48516;SDS011;34310;51.904;4.256;2023-09-30T04:02:00;6.03;;;3.90;;
48516;SDS011;34310;51.904;4.256;2023-09-30T04:04:27;8.60;;;4.45;;
48516;SDS011;34310;51.904;4.256;2023-09-30T04:06:53;6.50;;;3.85;;
48516;SDS011;34310;51.904;4.256;2023-09-30T04:09:20;4.72;;;3.88;;
48516;SDS011;34310;51.904;4.256;2023-09-30T04:11:46;5.88;;;4.32;;
48516;SDS011;34310;51.904;4.256;2023-09-30T04:14:13;5.68;;;4.35;;
48516;SDS011;34310;51.904;4.256;2023-09-30T04:16:39;5.82;;;4.30;;
48516;SDS011;34310;51.904;4.256;2023-09-30T04:19:06;8.30;;;4.68;;
48516;SDS011;34310;51.904;4.256;2023-09-30T04:21:32;7.72;;;4.57;;
48516;SDS011;34310;51.904;4.256;2023-09-30T04:23:59;6.75;;;4.72;;
48516;SDS011;34310;51.904;4.256;2023-09-30T04:26:26;5.32;;;4.30;;
48516;SDS011;34310;51.904;4.256;2023-09-30T04:28:53;8.32;;;5.13;;
48516;SDS011;34310;51.904;4.256;2023-09-30T04:31:20;6.05;;;4.80;;
48516;SDS011;34310;51.904;4.256;2023-09-30T04:33:48;7.30;;;4.75;;
48516;SDS011;34310;51.904;4.256;2023-09-30T04:36:14;6.25;;;4.75;;
48516;SDS011;34310;51.904;4.256;2023-09-30T04:38:41;7.25;;;5.30;;
48516;SDS011;34310;51.904;4.256;2023-09-30T04:41:07;6.30;;;5.30;;
48516;SDS011;34310;51.904;4.256;2023-09-30T04:43:34;6.18;;;4.65;;
48516;SDS011;34310;51.904;4.256;2023-09-30T04:46:01;6.28;;;5.00;;
48516;SDS011;34310;51.904;4.256;2023-09-30T04:48:27;7.85;;;5.10;;
48516;SDS011;34310;51.904;4.256;2023-09-30T04:50:54;6.75;;;5.15;;
48516;SDS011;34310;51.904;4.256;2023-09-30T04:53:20;7.28;;;5.65;;
48516;SDS011;34310;51.904;4.256;2023-09-30T04:55:47;6.47;;;5.50;;
48516;SDS011;34310;51.904;4.256;2023-09-30T04:58:14;7.95;;;5.53;;
48516;SDS011;34310;51.904;4.256;2023-09-30T05:00:40;7.88;;;5.30;;
48516;SDS011;34310;51.904;4.256;2023-09-30T05:03:07;7.30;;;5.00;;
48516;SDS011;34310;51.904;4.256;2023-09-30T05:05:33;7.40;;;5.35;;
48516;SDS011;34310;51.904;4.256;2023-09-30T05:08:00;8.02;;;5.35;;
48516;SDS011;34310;51.904;4.256;2023-09-30T05:10:27;6.68;;;5.13;;
48516;SDS011;34310;51.904;4.256;2023-09-30T05:12:55;6.32;;;5.22;;
48516;SDS011;34310;51.904;4.256;2023-09-30T05:15:21;6.97;;;5.40;;
48516;SDS011;34310;51.904;4.256;2023-09-30T05:17:48;8.93;;;5.80;;
48516;SDS011;34310;51.904;4.256;2023-09-30T05:20:15;7.40;;;5.20;;
48516;SDS011;34310;51.904;4.256;2023-09-30T05:22:42;7.57;;;5.10;;
48516;SDS011;34310;51.904;4.256;2023-09-30T05:25:09;8.38;;;5.53;;
48516;SDS011;34310;51.904;4.256;2023-09-30T05:27:36;6.78;;;5.50;;
48516;SDS011;34310;51.904;4.256;2023-09-30T05:30:03;7.05;;;4.95;;
48516;SDS011;34310;51.904;4.256;2023-09-30T05:32:31;7.15;;;5.90;;
48516;SDS011;34310;51.904;4.256;2023-09-30T05:34:58;9.20;;;5.68;;
48516;SDS011;34310;51.904;4.256;2023-09-30T05:37:24;11.30;;;6.30;;
48516;SDS011;34310;51.904;4.256;2023-09-30T05:39:52;7.18;;;5.63;;
48516;SDS011;34310;51.904;4.256;2023-09-30T05:42:18;9.68;;;6.32;;
48516;SDS011;34310;51.904;4.256;2023-09-30T05:44:45;8.30;;;5.60;;
48516;SDS011;34310;51.904;4.256;2023-09-30T05:47:11;8.02;;;6.15;;
48516;SDS011;34310;51.904;4.256;2023-09-30T05:49:38;8.63;;;6.00;;
48516;SDS011;34310;51.904;4.256;2023-09-30T05:52:04;7.30;;;5.97;;
48516;SDS011;34310;51.904;4.256;2023-09-30T05:54:31;9.30;;;6.78;;
48516;SDS011;34310;51.904;4.256;2023-09-30T05:56:57;8.45;;;6.78;;
48516;SDS011;34310;51.904;4.256;2023-09-30T05:59:24;10.18;;;7.15;;
48516;SDS011;34310;51.904;4.256;2023-09-30T06:01:50;9.88;;;7.55;;
48516;SDS011;34310;51.904;4.256;2023-09-30T06:04:17;8.70;;;7.15;;
48516;SDS011;34310;51.904;4.256;2023-09-30T06:06:44;10.10;;;7.13;;
48516;SDS011;34310;51.904;4.256;2023-09-30T06:09:10;9.00;;;7.10;;
48516;SDS011;34310;51.904;4.256;2023-09-30T06:11:37;11.15;;;7.55;;
48516;SDS011;34310;51.904;4.256;2023-09-30T06:14:03;10.02;;;8.10;;
48516;SDS011;34310;51.904;4.256;2023-09-30T06:16:30;11.68;;;8.02;;
48516;SDS011;34310;51.904;4.256;2023-09-30T06:18:56;12.90;;;8.38;;
48516;SDS011;34310;51.904;4.256;2023-09-30T06:21:24;10.35;;;8.13;;
48516;SDS011;34310;51.904;4.256;2023-09-30T06:23:51;11.82;;;7.85;;
48516;SDS011;34310;51.904;4.256;2023-09-30T06:26:18;11.27;;;8.70;;
48516;SDS011;34310;51.904;4.256;2023-09-30T06:28:44;11.15;;;8.52;;
48516;SDS011;34310;51.904;4.256;2023-09-30T06:31:11;11.50;;;8.07;;
48516;SDS011;34310;51.904;4.256;2023-09-30T06:33:37;11.57;;;8.18;;
48516;SDS011;34310;51.904;4.256;2023-09-30T06:36:10;10.13;;;7.93;;
48516;SDS011;34310;51.904;4.256;2023-09-30T06:38:38;11.68;;;8.55;;
48516;SDS011;34310;51.904;4.256;2023-09-30T06:41:04;11.15;;;8.63;;
48516;SDS011;34310;51.904;4.256;2023-09-30T06:43:32;13.00;;;9.10;;
48516;SDS011;34310;51.904;4.256;2023-09-30T06:45:59;12.82;;;9.27;;
48516;SDS011;34310;51.904;4.256;2023-09-30T06:48:25;12.30;;;9.52;;
48516;SDS011;34310;51.904;4.256;2023-09-30T06:50:52;11.23;;;8.57;;
48516;SDS011;34310;51.904;4.256;2023-09-30T06:53:18;13.48;;;9.25;;
48516;SDS011;34310;51.904;4.256;2023-09-30T06:55:45;12.70;;;9.43;;
48516;SDS011;34310;51.904;4.256;2023-09-30T06:58:12;12.85;;;8.90;;
48516;SDS011;34310;51.904;4.256;2023-09-30T07:00:40;11.63;;;9.70;;
48516;SDS011;34310;51.904;4.256;2023-09-30T07:03:07;13.05;;;9.88;;
48516;SDS011;34310;51.904;4.256;2023-09-30T07:05:34;14.90;;;11.10;;
48516;SDS011;34310;51.904;4.256;2023-09-30T07:08:02;13.93;;;10.95;;
48516;SDS011;34310;51.904;4.256;2023-09-30T07:10:29;15.38;;;11.82;;
48516;SDS011;34310;51.904;4.256;2023-09-30T07:12:55;15.25;;;11.85;;
48516;SDS011;34310;51.904;4.256;2023-09-30T07:15:22;15.10;;;11.85;;
48516;SDS011;34310;51.904;4.256;2023-09-30T07:17:49;15.98;;;10.73;;
48516;SDS011;34310;51.904;4.256;2023-09-30T07:20:15;13.50;;;10.23;;
48516;SDS011;34310;51.904;4.256;2023-09-30T07:22:42;15.48;;;10.95;;
48516;SDS011;34310;51.904;4.256;2023-09-30T07:25:28;14.10;;;11.05;;
48516;SDS011;34310;51.904;4.256;2023-09-30T07:27:55;14.25;;;10.82;;
48516;SDS011;34310;51.904;4.256;2023-09-30T07:30:24;13.65;;;11.00;;
48516;SDS011;34310;51.904;4.256;2023-09-30T07:32:51;14.13;;;10.63;;
48516;SDS011;34310;51.904;4.256;2023-09-30T07:35:18;13.15;;;9.80;;
48516;SDS011;34310;51.904;4.256;2023-09-30T07:37:45;12.70;;;9.85;;
48516;SDS011;34310;51.904;4.256;2023-09-30T07:40:11;14.15;;;10.02;;
48516;SDS011;34310;51.904;4.256;2023-09-30T07:42:39;12.50;;;9.68;;
48516;SDS011;34310;51.904;4.256;2023-09-30T07:45:06;12.18;;;10.05;;
48516;SDS011;34310;51.904;4.256;2023-09-30T07:47:33;13.10;;;10.43;;
48516;SDS011;34310;51.904;4.256;2023-09-30T07:50:00;13.95;;;10.95;;
48516;SDS011;34310;51.904;4.256;2023-09-30T07:52:27;14.50;;;10.88;;
48516;SDS011;34310;51.904;4.256;2023-09-30T07:54:53;14.77;;;11.55;;
48516;SDS011;34310;51.904;4.256;2023-09-30T07:57:20;14.98;;;11.70;;
48516;SDS011;34310;51.904;4.256;2023-09-30T07:59:46;13.10;;;10.93;;
48516;SDS011;34310;51.904;4.256;2023-09-30T08:02:13;13.50;;;10.20;;
48516;SDS011;34310;51.904;4.256;2023-09-30T08:04:39;12.27;;;10.20;;
48516;SDS011;34310;51.904;4.256;2023-09-30T08:07:06;13.52;;;11.02;;
48516;SDS011;34310;51.904;4.256;2023-09-30T08:09:32;14.35;;;11.10;;
48516;SDS011;34310;51.904;4.256;2023-09-30T08:11:59;13.52;;;10.20;;
48516;SDS011;34310;51.904;4.256;2023-09-30T08:14:25;15.32;;;10.88;;
48516;SDS011;34310;51.904;4.256;2023-09-30T08:16:52;14.43;;;10.27;;
48516;SDS011;34310;51.904;4.256;2023-09-30T08:19:18;13.43;;;10.80;;
48516;SDS011;34310;51.904;4.256;2023-09-30T08:21:45;13.48;;;10.88;;
48516;SDS011;34310;51.904;4.256;2023-09-30T08:24:11;14.75;;;12.00;;
48516;SDS011;34310;51.904;4.256;2023-09-30T08:26:38;15.40;;;12.05;;
48516;SDS011;34310;51.904;4.256;2023-09-30T08:29:04;14.65;;;12.10;;
48516;SDS011;34310;51.904;4.256;2023-09-30T08:31:31;15.88;;;12.32;;
48516;SDS011;34310;51.904;4.256;2023-09-30T08:33:57;16.92;;;12.93;;
48516;SDS011;34310;51.904;4.256;2023-09-30T08:36:24;17.85;;;13.20;;
48516;SDS011;34310;51.904;4.256;2023-09-30T08:38:50;16.55;;;12.63;;
48516;SDS011;34310;51.904;4.256;2023-09-30T08:41:24;15.00;;;12.35;;
48516;SDS011;34310;51.904;4.256;2023-09-30T08:43:59;16.83;;;13.20;;
48516;SDS011;34310;51.904;4.256;2023-09-30T08:46:28;17.60;;;12.93;;
48516;SDS011;34310;51.904;4.256;2023-09-30T08:48:57;20.92;;;16.42;;
48516;SDS011;34310;51.904;4.256;2023-09-30T08:51:26;20.83;;;16.95;;
48516;SDS011;34310;51.904;4.256;2023-09-30T08:53:54;23.98;;;18.98;;
48516;SDS011;34310;51.904;4.256;2023-09-30T08:56:21;25.10;;;20.27;;
48516;SDS011;34310;51.904;4.256;2023-09-30T08:59:00;25.63;;;20.42;;
48516;SDS011;34310;51.904;4.256;2023-09-30T09:01:28;27.40;;;20.80;;
48516;SDS011;34310;51.904;4.256;2023-09-30T09:03:56;28.08;;;21.33;;
48516;SDS011;34310;51.904;4.256;2023-09-30T09:06:24;28.80;;;21.98;;
48516;SDS011;34310;51.904;4.256;2023-09-30T09:08:51;28.50;;;21.38;;
48516;SDS011;34310;51.904;4.256;2023-09-30T09:11:18;27.60;;;21.65;;
48516;SDS011;34310;51.904;4.256;2023-09-30T09:13:48;27.10;;;21.02;;
48516;SDS011;34310;51.904;4.256;2023-09-30T09:16:16;26.33;;;20.63;;
48516;SDS011;34310;51.904;4.256;2023-09-30T09:18:44;25.88;;;20.83;;
48516;SDS011;34310;51.904;4.256;2023-09-30T09:21:11;25.35;;;20.20;;
48516;SDS011;34310;51.904;4.256;2023-09-30T09:23:49;23.60;;;18.83;;
48516;SDS011;34310;51.904;4.256;2023-09-30T09:26:24;23.55;;;17.95;;
48516;SDS011;34310;51.904;4.256;2023-09-30T09:29:01;22.35;;;18.33;;
48516;SDS011;34310;51.904;4.256;2023-09-30T09:31:31;21.95;;;18.00;;
48516;SDS011;34310;51.904;4.256;2023-09-30T09:33:59;22.75;;;18.00;;
48516;SDS011;34310;51.904;4.256;2023-09-30T09:36:44;22.00;;;17.90;;
48516;SDS011;34310;51.904;4.256;2023-09-30T09:39:11;22.23;;;17.80;;
48516;SDS011;34310;51.904;4.256;2023-09-30T09:41:50;21.85;;;16.98;;
48516;SDS011;34310;51.904;4.256;2023-09-30T09:44:21;20.90;;;16.88;;
48516;SDS011;34310;51.904;4.256;2023-09-30T09:46:49;20.42;;;16.95;;
48516;SDS011;34310;51.904;4.256;2023-09-30T09:49:17;20.40;;;16.35;;
48516;SDS011;34310;51.904;4.256;2023-09-30T09:51:47;20.70;;;16.63;;
48516;SDS011;34310;51.904;4.256;2023-09-30T09:54:15;20.08;;;16.35;;
48516;SDS011;34310;51.904;4.256;2023-09-30T09:56:45;21.45;;;17.33;;
48516;SDS011;34310;51.904;4.256;2023-09-30T09:59:12;22.63;;;18.42;;
48516;SDS011;34310;51.904;4.256;2023-09-30T10:01:42;23.73;;;18.63;;
48516;SDS011;34310;51.904;4.256;2023-09-30T10:04:11;24.98;;;19.02;;
48516;SDS011;34310;51.904;4.256;2023-09-30T10:06:39;24.65;;;19.88;;
48516;SDS011;34310;51.904;4.256;2023-09-30T10:09:07;25.70;;;19.92;;
48516;SDS011;34310;51.904;4.256;2023-09-30T10:11:36;23.90;;;19.67;;
48516;SDS011;34310;51.904;4.256;2023-09-30T10:14:04;23.05;;;18.20;;
48516;SDS011;34310;51.904;4.256;2023-09-30T10:19:09;24.73;;;19.50;;
48516;SDS011;34310;51.904;4.256;2023-09-30T10:21:53;24.20;;;19.23;;
48516;SDS011;34310;51.904;4.256;2023-09-30T10:24:45;21.33;;;18.13;;
48516;SDS011;34310;51.904;4.256;2023-09-30T10:29:49;22.20;;;18.42;;
48516;SDS011;34310;51.904;4.256;2023-09-30T10:32:22;23.17;;;18.30;;
48516;SDS011;34310;51.904;4.256;2023-09-30T10:34:49;22.35;;;18.58;;
48516;SDS011;34310;51.904;4.256;2023-09-30T10:37:22;22.02;;;18.48;;
48516;SDS011;34310;51.904;4.256;2023-09-30T10:39:53;23.60;;;18.53;;
48516;SDS011;34310;51.904;4.256;2023-09-30T10:50:52;22.20;;;18.73;;
48516;SDS011;34310;51.904;4.256;2023-09-30T10:53:23;22.98;;;18.42;;
48516;SDS011;34310;51.904;4.256;2023-09-30T10:55:56;23.17;;;19.50;;
48516;SDS011;34310;51.904;4.256;2023-09-30T11:01:14;21.52;;;18.38;;
48516;SDS011;34310;51.904;4.256;2023-09-30T11:03:42;22.42;;;18.58;;
48516;SDS011;34310;51.904;4.256;2023-09-30T11:06:13;22.42;;;18.77;;
48516;SDS011;34310;51.904;4.256;2023-09-30T11:08:44;23.55;;;19.15;;
48516;SDS011;34310;51.904;4.256;2023-09-30T11:11:18;23.23;;;18.63;;
48516;SDS011;34310;51.904;4.256;2023-09-30T11:13:45;22.48;;;18.65;;
48516;SDS011;34310;51.904;4.256;2023-09-30T11:16:11;21.42;;;18.42;;
48516;SDS011;34310;51.904;4.256;2023-09-30T11:18:38;23.67;;;17.90;;
48516;SDS011;34310;51.904;4.256;2023-09-30T11:21:05;21.60;;;17.80;;
48516;SDS011;34310;51.904;4.256;2023-09-30T11:23:36;21.98;;;18.27;;
48516;SDS011;34310;51.904;4.256;2023-09-30T11:26:03;21.00;;;17.98;;
48516;SDS011;34310;51.904;4.256;2023-09-30T11:28:37;22.00;;;18.13;;
48516;SDS011;34310;51.904;4.256;2023-09-30T11:31:08;21.70;;;18.25;;
48516;SDS011;34310;51.904;4.256;2023-09-30T11:33:49;21.48;;;18.17;;
48516;SDS011;34310;51.904;4.256;2023-09-30T11:36:16;21.48;;;17.95;;
48516;SDS011;34310;51.904;4.256;2023-09-30T11:38:48;20.98;;;17.73;;
48516;SDS011;34310;51.904;4.256;2023-09-30T11:41:16;23.33;;;18.58;;
48516;SDS011;34310;51.904;4.256;2023-09-30T11:43:57;19.98;;;17.13;;
48516;SDS011;34310;51.904;4.256;2023-09-30T11:46:25;20.73;;;17.08;;
48516;SDS011;34310;51.904;4.256;2023-09-30T11:49:01;20.10;;;17.10;;
48516;SDS011;34310;51.904;4.256;2023-09-30T11:51:29;20.38;;;17.20;;
48516;SDS011;34310;51.904;4.256;2023-09-30T11:53:56;21.38;;;16.95;;
48516;SDS011;34310;51.904;4.256;2023-09-30T11:56:22;20.13;;;16.23;;
48516;SDS011;34310;51.904;4.256;2023-09-30T11:58:49;18.58;;;16.15;;
48516;SDS011;34310;51.904;4.256;2023-09-30T12:01:15;20.70;;;16.65;;
48516;SDS011;34310;51.904;4.256;2023-09-30T12:03:42;22.17;;;17.77;;
48516;SDS011;34310;51.904;4.256;2023-09-30T12:06:09;20.33;;;16.80;;
48516;SDS011;34310;51.904;4.256;2023-09-30T12:08:35;19.77;;;16.13;;
48516;SDS011;34310;51.904;4.256;2023-09-30T12:11:02;17.92;;;15.60;;
48516;SDS011;34310;51.904;4.256;2023-09-30T12:13:28;20.30;;;15.77;;
48516;SDS011;34310;51.904;4.256;2023-09-30T12:15:54;19.13;;;15.05;;
48516;SDS011;34310;51.904;4.256;2023-09-30T12:18:21;18.35;;;15.60;;
48516;SDS011;34310;51.904;4.256;2023-09-30T12:20:47;19.05;;;15.32;;
48516;SDS011;34310;51.904;4.256;2023-09-30T12:23:14;19.25;;;15.23;;
48516;SDS011;34310;51.904;4.256;2023-09-30T12:25:40;16.75;;;14.02;;
48516;SDS011;34310;51.904;4.256;2023-09-30T12:28:08;16.60;;;14.82;;
48516;SDS011;34310;51.904;4.256;2023-09-30T12:30:34;19.10;;;15.52;;
48516;SDS011;34310;51.904;4.256;2023-09-30T12:33:01;16.95;;;14.00;;
48516;SDS011;34310;51.904;4.256;2023-09-30T12:35:28;15.98;;;13.55;;
48516;SDS011;34310;51.904;4.256;2023-09-30T12:37:54;16.75;;;13.63;;
48516;SDS011;34310;51.904;4.256;2023-09-30T12:40:21;16.55;;;13.68;;
48516;SDS011;34310;51.904;4.256;2023-09-30T12:42:47;15.20;;;13.05;;
48516;SDS011;34310;51.904;4.256;2023-09-30T12:45:14;17.73;;;12.88;;
48516;SDS011;34310;51.904;4.256;2023-09-30T12:47:40;16.52;;;13.75;;
48516;SDS011;34310;51.904;4.256;2023-09-30T12:50:07;15.68;;;12.80;;
48516;SDS011;34310;51.904;4.256;2023-09-30T12:52:36;14.93;;;12.23;;
48516;SDS011;34310;51.904;4.256;2023-09-30T12:55:03;14.38;;;12.55;;
48516;SDS011;34310;51.904;4.256;2023-09-30T12:57:30;14.27;;;11.60;;
48516;SDS011;34310;51.904;4.256;2023-09-30T12:59:56;15.10;;;11.98;;
48516;SDS011;34310;51.904;4.256;2023-09-30T13:02:23;15.48;;;12.30;;
48516;SDS011;34310;51.904;4.256;2023-09-30T13:04:50;14.35;;;11.40;;
48516;SDS011;34310;51.904;4.256;2023-09-30T13:07:16;13.85;;;11.55;;
48516;SDS011;34310;51.904;4.256;2023-09-30T13:09:43;13.30;;;11.45;;
48516;SDS011;34310;51.904;4.256;2023-09-30T13:12:09;13.02;;;11.07;;
48516;SDS011;34310;51.904;4.256;2023-09-30T13:14:36;13.32;;;10.65;;
48516;SDS011;34310;51.904;4.256;2023-09-30T13:17:02;13.27;;;11.30;;
48516;SDS011;34310;51.904;4.256;2023-09-30T13:19:29;12.43;;;10.18;;
48516;SDS011;34310;51.904;4.256;2023-09-30T13:21:56;12.35;;;10.63;;
48516;SDS011;34310;51.904;4.256;2023-09-30T13:24:22;13.75;;;10.60;;
48516;SDS011;34310;51.904;4.256;2023-09-30T13:26:49;12.40;;;10.60;;
48516;SDS011;34310;51.904;4.256;2023-09-30T13:29:15;12.57;;;10.10;;
48516;SDS011;34310;51.904;4.256;2023-09-30T13:31:42;12.70;;;10.18;;
48516;SDS011;34310;51.904;4.256;2023-09-30T13:34:09;13.43;;;10.02;;
48516;SDS011;34310;51.904;4.256;2023-09-30T13:36:35;11.73;;;9.23;;
48516;SDS011;34310;51.904;4.256;2023-09-30T13:39:02;12.18;;;9.52;;
48516;SDS011;34310;51.904;4.256;2023-09-30T13:41:28;11.32;;;9.25;;
48516;SDS011;34310;51.904;4.256;2023-09-30T13:43:55;11.68;;;9.23;;
48516;SDS011;34310;51.904;4.256;2023-09-30T13:46:21;10.93;;;9.40;;
48516;SDS011;34310;51.904;4.256;2023-09-30T13:48:48;11.93;;;9.30;;
48516;SDS011;34310;51.904;4.256;2023-09-30T13:51:14;11.40;;;9.50;;
48516;SDS011;34310;51.904;4.256;2023-09-30T13:53:41;11.15;;;8.85;;
48516;SDS011;34310;51.904;4.256;2023-09-30T13:56:07;12.15;;;9.55;;
48516;SDS011;34310;51.904;4.256;2023-09-30T13:58:34;10.65;;;8.90;;
48516;SDS011;34310;51.904;4.256;2023-09-30T14:01:00;10.70;;;8.63;;
48516;SDS011;34310;51.904;4.256;2023-09-30T14:03:27;10.43;;;8.27;;
48516;SDS011;34310;51.904;4.256;2023-09-30T14:05:54;9.48;;;7.82;;
48516;SDS011;34310;51.904;4.256;2023-09-30T14:08:20;9.43;;;8.07;;
48516;SDS011;34310;51.904;4.256;2023-09-30T14:10:47;10.25;;;8.30;;
48516;SDS011;34310;51.904;4.256;2023-09-30T14:13:16;9.13;;;7.75;;
48516;SDS011;34310;51.904;4.256;2023-09-30T14:15:42;9.00;;;7.78;;
48516;SDS011;34310;51.904;4.256;2023-09-30T14:18:09;9.13;;;8.07;;
48516;SDS011;34310;51.904;4.256;2023-09-30T14:20:35;10.43;;;8.05;;
48516;SDS011;34310;51.904;4.256;2023-09-30T14:23:02;9.40;;;7.05;;
48516;SDS011;34310;51.904;4.256;2023-09-30T14:25:29;10.45;;;7.78;;
48516;SDS011;34310;51.904;4.256;2023-09-30T14:27:55;8.73;;;7.25;;
48516;SDS011;34310;51.904;4.256;2023-09-30T14:30:23;9.70;;;7.07;;
48516;SDS011;34310;51.904;4.256;2023-09-30T14:32:50;9.13;;;7.28;;
48516;SDS011;34310;51.904;4.256;2023-09-30T14:35:16;8.07;;;6.75;;
48516;SDS011;34310;51.904;4.256;2023-09-30T14:37:43;7.95;;;6.88;;
48516;SDS011;34310;51.904;4.256;2023-09-30T14:40:09;9.23;;;7.28;;
48516;SDS011;34310;51.904;4.256;2023-09-30T14:42:37;8.52;;;6.82;;
48516;SDS011;34310;51.904;4.256;2023-09-30T14:45:04;7.78;;;6.75;;
48516;SDS011;34310;51.904;4.256;2023-09-30T14:47:31;7.65;;;6.45;;
48516;SDS011;34310;51.904;4.256;2023-09-30T14:49:58;8.40;;;6.43;;
48516;SDS011;34310;51.904;4.256;2023-09-30T14:52:24;7.95;;;5.90;;
48516;SDS011;34310;51.904;4.256;2023-09-30T14:54:51;8.05;;;6.13;;